Time;durP1;ratioP1;P1;durP2;ratioP2;P2;SDS_P1;SDS_P2;PMS_P1;PMS_P2;Temp;Humidity;BMP_temperature;BMP_pressure;BME280_temperature;BME280_humidity;BME280_pressure;Samples;Min_cycle;Max_cycle;Signal;HPM_P1;HPM_P2
2022/05/16 00:00:58;;;;;;;26.30;13.15;;;;;;;18.15;88.96;100357.25;5108177;28;20026;-33
2022/05/16 00:03:24;;;;;;;18.85;14.85;;;;;;;17.84;91.28;100367.88;5089393;28;20036;-33
2022/05/16 00:05:51;;;;;;;17.20;14.57;;;;;;;17.81;91.36;100352.16;5107076;28;20027;-33
2022/05/16 00:08:16;;;;;;;15.10;13.50;;;;;;;17.73;91.31;100350.75;5089189;28;20352;-33
2022/05/16 00:10:42;;;;;;;17.33;15.48;;;;;;;17.63;92.80;100361.47;5107671;28;20491;-29
2022/05/16 00:13:07;;;;;;;17.65;15.38;;;;;;;17.65;92.10;100359.31;5107874;28;20063;-29
2022/05/16 00:15:34;;;;;;;20.58;15.77;;;;;;;17.76;91.93;100357.53;5107528;28;20118;-34
2022/05/16 00:18:00;;;;;;;17.33;15.27;;;;;;;17.81;91.68;100357.56;5106353;28;20548;-30
2022/05/16 00:20:26;;;;;;;19.90;16.85;;;;;;;17.79;91.24;100365.09;5107840;28;20081;-30
2022/05/16 00:22:51;;;;;;;16.92;14.88;;;;;;;17.75;92.02;100375.56;5106272;28;20471;-32
2022/05/16 00:25:17;;;;;;;16.25;13.73;;;;;;;17.87;90.88;100372.72;5088877;28;20024;-31
2022/05/16 00:27:43;;;;;;;16.98;15.18;;;;;;;17.99;90.29;100362.56;5107705;28;20030;-29
2022/05/16 00:30:12;;;;;;;18.23;15.02;;;;;;;17.82;92.24;100373.47;5107559;28;20023;-29
2022/05/16 00:32:37;;;;;;;17.88;14.95;;;;;;;17.57;94.13;100357.94;5089094;28;20066;-30
2022/05/16 00:35:05;;;;;;;16.75;14.35;;;;;;;17.81;91.57;100362.94;5107596;28;20058;-31
2022/05/16 00:37:31;;;;;;;17.35;15.55;;;;;;;18.04;89.22;100378.78;5105376;28;20049;-29
2022/05/16 00:39:56;;;;;;;17.63;15.73;;;;;;;18.07;89.33;100382.84;5107291;28;20059;-33
2022/05/16 00:42:22;;;;;;;17.48;14.63;;;;;;;17.85;89.53;100361.38;5107295;28;20093;-32
2022/05/16 00:44:47;;;;;;;16.40;13.70;;;;;;;18.20;88.04;100378.84;5107474;28;20031;-30
2022/05/16 00:47:13;;;;;;;17.23;14.45;;;;;;;17.87;89.82;100375.44;5107169;28;20123;-30
2022/05/16 00:49:42;;;;;;;18.42;15.25;;;;;;;17.82;90.49;100378.06;5106867;28;20098;-29
2022/05/16 00:52:15;;;;;;;16.63;14.18;;;;;;;17.89;89.53;100384.06;5105574;28;20032;-31
2022/05/16 00:55:04;;;;;;;16.92;14.82;;;;;;;18.20;88.60;100384.25;5105940;28;20024;-29
2022/05/16 00:57:55;;;;;;;16.63;14.90;;;;;;;18.15;87.93;100389.66;5106903;28;20122;-37
2022/05/16 01:00:31;;;;;;;15.23;13.60;;;;;;;18.01;87.34;100387.38;5088919;28;20122;-31
2022/05/16 01:05:50;;;;;;;17.10;14.65;;;;;;;17.56;90.07;100372.47;5106945;28;20068;-34
2022/05/16 01:08:25;;;;;;;9.32;8.18;;;;;;;17.22;90.12;100383.53;5107325;28;20031;-30
2022/05/16 01:10:54;;;;;;;11.05;9.63;;;;;;;16.96;93.30;100368.13;5088657;28;20041;-32
2022/05/16 01:13:26;;;;;;;12.63;10.88;;;;;;;17.01;95.31;100378.97;5088926;28;20039;-30
2022/05/16 01:15:52;;;;;;;14.00;11.88;;;;;;;16.95;92.68;100347.66;5107136;28;20475;-30
2022/05/16 01:18:21;;;;;;;12.88;11.10;;;;;;;16.93;94.31;100379.44;5110957;28;20028;-31
2022/05/16 01:21:04;;;;;;;15.65;13.30;;;;;;;17.11;94.28;100360.22;5109643;28;20110;-33
2022/05/16 01:23:37;;;;;;;14.40;12.68;;;;;;;17.24;91.49;100376.00;5109340;28;20028;-40
2022/05/16 01:26:09;;;;;;;16.85;11.63;;;;;;;17.16;91.61;100387.25;5111060;28;20525;-29
2022/05/16 01:28:34;;;;;;;15.05;12.40;;;;;;;17.08;92.58;100385.00;5092624;28;20479;-30
2022/05/16 01:31:00;;;;;;;15.00;12.85;;;;;;;17.12;92.40;100367.25;5110951;28;20030;-29
2022/05/16 01:33:26;;;;;;;14.90;13.32;;;;;;;17.13;91.88;100366.16;5110699;28;20028;-30
2022/05/16 01:35:52;;;;;;;16.02;13.57;;;;;;;16.85;93.22;100365.34;5110495;28;20043;-29
2022/05/16 01:38:19;;;;;;;15.07;12.75;;;;;;;16.92;94.04;100380.50;5092405;28;20034;-32
2022/05/16 01:40:50;;;;;;;14.90;13.23;;;;;;;16.80;93.53;100380.63;5110702;28;20541;-29
2022/05/16 01:43:17;;;;;;;14.68;11.98;;;;;;;16.68;93.15;100372.69;5092454;28;20085;-29
2022/05/16 01:45:44;;;;;;;12.55;11.23;;;;;;;16.40;93.60;100349.44;5109151;28;20074;-29
2022/05/16 01:48:12;;;;;;;12.30;10.30;;;;;;;16.26;94.56;100365.16;5092230;28;20411;-33
2022/05/16 01:50:39;;;;;;;16.10;10.18;;;;;;;16.25;94.29;100388.56;5091945;28;20019;-29
2022/05/16 01:53:04;;;;;;;11.55;8.93;;;;;;;16.06;95.40;100374.59;5091999;28;20063;-30
2022/05/16 01:55:30;;;;;;;11.43;9.07;;;;;;;16.02;96.33;100381.53;5110437;28;20031;-32
2022/05/16 01:57:55;;;;;;;11.30;8.80;;;;;;;16.15;95.37;100371.47;5110643;28;20027;-30
2022/05/16 02:00:21;;;;;;;11.05;9.70;;;;;;;16.58;91.88;100388.72;5110229;28;20047;-29
2022/05/16 02:02:47;;;;;;;11.35;9.98;;;;;;;16.84;91.86;100390.66;5110264;28;20032;-34
2022/05/16 02:05:16;;;;;;;10.35;8.75;;;;;;;16.37;92.59;100385.75;5091669;28;20024;-30
2022/05/16 02:07:42;;;;;;;11.00;9.35;;;;;;;16.21;93.78;100373.16;5091731;28;20024;-37
2022/05/16 02:10:10;;;;;;;12.60;10.18;;;;;;;16.34;94.53;100382.75;5110376;28;20532;-32
2022/05/16 02:12:36;;;;;;;;;;;;;;;16.35;92.85;100398.66;5092306;28;20411;-30
2022/05/16 02:15:07;;;;;;;11.98;10.07;;;;;;;16.21;94.07;100403.56;5108524;28;19915;-31
2022/05/16 02:17:33;;;;;;;10.85;8.70;;;;;;;16.11;93.11;100389.16;5109720;28;20482;-32
2022/05/16 02:19:59;;;;;;;14.38;10.45;;;;;;;16.16;94.88;100398.13;5108584;28;20028;-33
2022/05/16 02:25:09;;;;;;;15.55;12.00;;;;;;;15.91;96.77;100395.06;5110082;28;20140;-29
2022/05/16 02:27:34;;;;;;;15.25;12.48;;;;;;;15.93;96.39;100377.59;5109628;28;20528;-33
2022/05/16 02:29:59;;;;;;;14.55;11.75;;;;;;;15.78;96.61;100390.84;5108857;28;20027;-33
2022/05/16 02:32:25;;;;;;;15.00;11.55;;;;;;;15.74;96.21;100384.31;5109620;28;20058;-34
2022/05/16 02:34:50;;;;;;;14.05;12.27;;;;;;;15.78;97.27;100385.47;5109703;28;20051;-29
2022/05/16 02:37:16;;;;;;;16.13;12.98;;;;;;;15.89;95.85;100379.16;5108079;28;20380;-34
2022/05/16 02:39:44;;;;;;;16.05;13.50;;;;;;;16.45;93.48;100385.31;5109248;28;20075;-30
2022/05/16 02:42:11;;;;;;;15.65;13.75;;;;;;;16.44;92.31;100391.75;5109514;28;20027;-31
2022/05/16 02:44:38;;;;;;;16.67;14.35;;;;;;;16.21;93.62;100390.13;5091051;28;20020;-29
2022/05/16 02:47:05;;;;;;;29.50;16.13;;;;;;;16.01;96.43;100398.72;5108283;28;20016;-30
2022/05/16 02:49:31;;;;;;;23.05;15.68;;;;;;;16.34;94.32;100388.94;5107810;28;20265;-31
2022/05/16 02:51:56;;;;;;;20.40;14.57;;;;;;;16.39;92.90;100385.53;5090850;28;20111;-29
2022/05/16 02:54:22;;;;;;;25.38;17.77;;;;;;;16.77;90.80;100375.72;5109279;28;20098;-28
2022/05/16 02:56:47;;;;;;;26.40;17.23;;;;;;;16.84;89.78;100392.56;5109112;28;20024;-29
2022/05/16 02:59:13;;;;;;;26.90;17.00;;;;;;;16.53;90.48;100359.00;5108883;28;20023;-34
2022/05/16 03:01:38;;;;;;;24.08;16.38;;;;;;;16.85;88.60;100400.34;5108903;28;20023;-32
2022/05/16 03:04:04;;;;;;;27.08;17.80;;;;;;;16.49;90.27;100401.81;5109166;28;20031;-30
2022/05/16 03:06:29;;;;;;;30.50;18.10;;;;;;;16.16;91.81;100394.59;5090663;28;20392;-29
2022/05/16 03:08:55;;;;;;;39.88;19.42;;;;;;;16.20;92.71;100409.19;5109055;28;20098;-29
2022/05/16 03:11:22;;;;;;;28.13;19.10;;;;;;;15.94;95.14;100413.41;5107536;28;20043;-30
2022/05/16 03:13:48;;;;;;;31.80;18.45;;;;;;;15.90;95.67;100410.38;5090152;28;20058;-32
2022/05/16 03:16:14;;;;;;;32.33;19.25;;;;;;;16.15;93.54;100396.50;5090184;28;20035;-32
2022/05/16 03:18:39;;;;;;;30.05;20.30;;;;;;;16.54;92.37;100414.50;5107322;28;20024;-29
2022/05/16 03:21:05;;;;;;;30.25;21.05;;;;;;;16.38;92.95;100406.22;5108773;28;20028;-32
2022/05/16 03:23:30;;;;;;;34.83;20.77;;;;;;;16.26;93.93;100408.19;5108564;28;20065;-32
2022/05/16 03:25:56;;;;;;;53.25;23.65;;;;;;;16.40;94.53;100414.84;5090306;28;20042;-29
2022/05/16 03:28:21;;;;;;;65.55;25.83;;;;;;;16.40;93.41;100400.59;5108544;28;20039;-30
2022/05/16 03:30:48;;;;;;;80.88;25.40;;;;;;;16.35;95.22;100428.25;5073275;28;20419;-29
2022/05/16 03:33:14;;;;;;;81.05;22.60;;;;;;;16.29;93.13;100425.75;5107295;28;20131;-29
2022/05/16 03:35:40;;;;;;;85.30;22.85;;;;;;;16.43;91.82;100425.13;5089822;28;20028;-32
2022/05/16 03:38:06;;;;;;;54.90;23.17;;;;;;;16.24;94.27;100404.94;5108721;28;20046;-31
2022/05/16 03:40:45;;;;;;;58.45;24.00;;;;;;;16.18;96.15;100438.22;5107033;28;20054;-29
2022/05/16 03:43:11;;;;;;;80.50;22.45;;;;;;;16.23;93.47;100441.00;5089705;28;20027;-33
2022/05/16 03:45:37;;;;;;;60.53;21.08;;;;;;;16.14;93.21;100437.09;5089475;28;20053;-35
2022/05/16 03:48:04;;;;;;;43.63;22.88;;;;;;;16.35;90.89;100417.50;5108218;28;20024;-30
2022/05/16 03:50:30;;;;;;;39.58;22.58;;;;;;;16.64;90.62;100431.59;5106911;28;20031;-32
2022/05/16 03:52:59;;;;;;;38.63;22.42;;;;;;;16.87;89.51;100435.94;5108275;28;20028;-28
2022/05/16 03:55:26;;;;;;;32.97;21.67;;;;;;;16.71;89.79;100441.38;5106795;28;20028;-34
2022/05/16 03:57:52;;;;;;;31.27;21.97;;;;;;;16.80;90.37;100435.28;5107753;28;20465;-35
2022/05/16 04:00:19;;;;;;;36.13;23.67;;;;;;;17.14;87.75;100442.44;5108157;28;20023;-31
2022/05/16 04:02:45;;;;;;;33.05;22.85;;;;;;;16.90;88.66;100445.41;5107771;28;20046;-30
2022/05/16 04:05:15;;;;;;;29.75;21.73;;;;;;;16.81;89.30;100453.09;5089746;28;20035;-32
2022/05/16 04:07:41;;;;;;;30.85;20.77;;;;;;;17.12;87.46;100453.50;5089247;28;20557;-31
2022/05/16 04:10:07;;;;;;;27.30;21.20;;;;;;;16.91;88.23;100462.38;5089449;28;20032;-31
2022/05/16 04:12:33;;;;;;;21.55;18.23;;;;;;;17.04;87.52;100446.66;5089620;28;20023;-32
2022/05/16 04:14:59;;;;;;;23.48;19.52;;;;;;;17.15;87.66;100452.97;5107949;28;20024;-32
2022/05/16 04:17:24;;;;;;;21.85;18.27;;;;;;;17.28;86.90;100457.13;5107687;28;20050;-31
2022/05/16 04:19:50;;;;;;;21.75;18.92;;;;;;;17.38;86.53;100459.13;5088960;28;20031;-29
2022/05/16 04:22:15;;;;;;;22.92;19.42;;;;;;;17.47;86.80;100455.72;5106275;28;20042;-31
2022/05/16 04:24:41;;;;;;;23.00;18.88;;;;;;;17.43;86.41;100464.59;5105950;28;20038;-32
2022/05/16 04:27:06;;;;;;;23.67;20.13;;;;;;;17.55;86.52;100443.66;5107763;28;20034;-32
2022/05/16 04:29:31;;;;;;;22.75;19.40;;;;;;;17.60;86.48;100457.19;5107437;28;20114;-29
2022/05/16 04:31:57;;;;;;;25.08;20.20;;;;;;;17.84;86.21;100460.41;5107780;28;20062;-29
2022/05/16 04:34:23;;;;;;;23.73;19.92;;;;;;;18.03;85.31;100468.91;5107332;28;20456;-36
2022/05/16 04:36:48;;;;;;;25.05;21.17;;;;;;;17.89;86.68;100448.81;5107876;28;20055;-32
2022/05/16 04:39:14;;;;;;;27.02;21.30;;;;;;;18.02;87.34;100461.06;5107003;28;20063;-32
2022/05/16 04:44:23;;;;;;;24.65;20.90;;;;;;;18.13;86.35;100467.38;5107336;28;20126;-34
2022/05/16 04:46:48;;;;;;;28.63;22.00;;;;;;;18.34;85.14;100471.81;5107567;28;20550;-29
2022/05/16 04:49:14;;;;;;;26.58;22.02;;;;;;;18.07;85.83;100451.13;5107396;28;20038;-33
2022/05/16 04:51:40;;;;;;;28.83;23.08;;;;;;;18.06;86.94;100472.97;5109071;28;20443;-29
2022/05/16 04:54:05;;;;;;;28.58;23.13;;;;;;;17.75;87.21;100456.50;5095769;28;20517;-30
2022/05/16 04:56:32;;;;;;;28.92;24.35;;;;;;;17.67;88.32;100463.19;5095634;28;20031;-29
2022/05/16 04:58:57;;;;;;;28.60;23.88;;;;;;;17.90;89.13;100474.75;5112480;28;20023;-29
2022/05/16 05:01:24;;;;;;;28.80;25.60;;;;;;;18.09;89.22;100472.47;5114205;28;20030;-32
2022/05/16 05:03:49;;;;;;;28.27;24.08;;;;;;;18.12;87.49;100474.63;5095602;28;20084;-30
2022/05/16 05:06:15;;;;;;;30.27;24.55;;;;;;;18.17;88.15;100465.78;5113969;28;20031;-31
2022/05/16 05:08:41;;;;;;;25.52;22.42;;;;;;;18.14;87.46;100474.38;5113799;28;20064;-28
2022/05/16 05:16:35;;;;;;;27.48;23.30;;;;;;;18.28;85.26;100473.66;5113806;28;20042;-31
2022/05/16 05:19:01;;;;;;;28.05;24.00;;;;;;;18.29;86.90;100477.19;5113928;28;20089;-30
2022/05/16 05:21:27;;;;;;;28.65;25.35;;;;;;;18.31;88.02;100485.00;5113974;28;20454;-31
2022/05/16 05:23:55;;;;;;;26.95;23.85;;;;;;;18.46;86.26;100477.81;5114025;28;20039;-29
2022/05/16 05:26:20;;;;;;;27.00;24.20;;;;;;;18.72;84.84;100471.75;5113924;28;20609;-29
2022/05/16 05:28:46;;;;;;;28.83;23.38;;;;;;;19.12;84.64;100487.34;5113877;28;20114;-29
2022/05/16 05:31:14;;;;;;;24.80;21.98;;;;;;;19.20;82.99;100486.00;5113785;28;20703;-30
2022/05/16 05:33:40;;;;;;;24.75;22.13;;;;;;;19.11;82.87;100469.50;5113243;28;20491;-29
2022/05/16 05:36:06;;;;;;;25.15;22.45;;;;;;;19.50;83.57;100479.06;5113995;28;20038;-29
2022/05/16 05:38:32;;;;;;;25.00;22.35;;;;;;;19.43;82.52;100473.88;5113460;28;20035;-29
2022/05/16 05:40:57;;;;;;;24.80;20.45;;;;;;;19.26;82.31;100476.84;5095319;28;20031;-29
2022/05/16 05:43:23;;;;;;;22.60;19.73;;;;;;;19.38;79.94;100479.31;5113543;28;20027;-30
2022/05/16 05:45:48;;;;;;;21.55;19.35;;;;;;;19.24;79.62;100460.88;5113420;28;20395;-33
2022/05/16 05:48:14;;;;;;;22.95;19.95;;;;;;;19.60;79.50;100479.88;5111811;28;20023;-31
2022/05/16 05:50:39;;;;;;;22.60;20.20;;;;;;;19.41;81.23;100460.66;5113684;28;20051;-29
2022/05/16 05:53:05;;;;;;;21.58;19.33;;;;;;;19.74;78.55;100479.41;5113656;28;20046;-33
2022/05/16 05:55:30;;;;;;;20.95;18.65;;;;;;;19.73;79.99;100483.16;5113167;28;20380;-30
2022/05/16 05:57:56;;;;;;;22.23;19.65;;;;;;;19.82;79.94;100486.97;5113564;28;20081;-29
2022/05/16 06:00:22;;;;;;;22.52;20.10;;;;;;;19.77;80.14;100470.72;5113426;28;20031;-29
2022/05/16 06:02:47;;;;;;;22.85;20.55;;;;;;;19.90;81.06;100486.44;5110977;28;20483;-29
2022/05/16 06:05:20;;;;;;;22.50;20.20;;;;;;;20.06;81.57;100490.75;5109802;28;20035;-29
2022/05/16 06:07:45;;;;;;;20.48;18.25;;;;;;;19.98;78.99;100477.78;5091745;28;20035;-29
2022/05/16 06:10:11;;;;;;;20.17;18.15;;;;;;;20.06;79.10;100501.59;5109973;28;20024;-33
2022/05/16 06:12:39;;;;;;;20.50;18.40;;;;;;;20.10;78.98;100492.91;5108745;28;20040;-36
2022/05/16 06:15:06;;;;;;;17.13;15.40;;;;;;;19.70;77.50;100484.50;5108575;28;20118;-32
2022/05/16 06:17:31;;;;;;;20.42;18.27;;;;;;;19.90;78.24;100477.50;5091574;28;20043;-29
2022/05/16 06:19:57;;;;;;;18.52;16.67;;;;;;;20.29;77.92;100485.88;5091585;28;20027;-31
2022/05/16 06:22:23;;;;;;;19.52;17.55;;;;;;;20.40;75.42;100500.19;5110062;28;20035;-29
2022/05/16 06:27:33;;;;;;;20.85;18.50;;;;;;;20.67;76.34;100494.47;5109350;28;20548;-29
2022/05/16 06:29:59;;;;;;;19.05;17.13;;;;;;;20.61;75.80;100492.84;5091184;28;20035;-30
2022/05/16 06:32:24;;;;;;;20.23;18.13;;;;;;;20.82;76.23;100497.13;5108336;28;20038;-29
2022/05/16 06:34:51;;;;;;;18.17;16.27;;;;;;;20.72;74.75;100493.63;5109798;28;20110;-31
2022/05/16 06:37:18;;;;;;;19.00;17.00;;;;;;;20.97;74.75;100490.03;5109841;28;20035;-30
2022/05/16 06:39:45;;;;;;;19.33;17.42;;;;;;;21.22;72.73;100487.19;5109707;28;20055;-29
2022/05/16 06:42:10;;;;;;;17.67;15.50;;;;;;;21.21;72.20;100480.16;5091073;28;20063;-32
2022/05/16 06:44:36;;;;;;;20.48;17.65;;;;;;;21.41;71.55;100484.66;5091687;28;20059;-30
2022/05/16 06:47:01;;;;;;;18.33;16.52;;;;;;;21.39;72.37;100480.56;5109732;28;20047;-30
2022/05/16 06:49:27;;;;;;;18.77;16.98;;;;;;;21.14;72.13;100489.69;5109458;28;20024;-31
2022/05/16 06:51:52;;;;;;;19.70;17.60;;;;;;;21.43;72.33;100478.94;5109399;28;20102;-30
2022/05/16 06:54:18;;;;;;;21.05;18.73;;;;;;;21.51;73.84;100489.22;5109539;28;20027;-35
2022/05/16 06:56:43;;;;;;;19.70;17.70;;;;;;;21.53;72.16;100480.78;5109198;28;20023;-31
2022/05/16 06:59:09;;;;;;;19.70;17.70;;;;;;;21.96;70.66;100491.88;5109248;28;20042;-29
2022/05/16 07:01:34;;;;;;;19.30;16.50;;;;;;;21.87;69.80;100475.38;5109105;28;20030;-34
2022/05/16 07:04:00;;;;;;;21.20;18.88;;;;;;;22.02;71.68;100464.38;5109097;28;20031;-29
2022/05/16 07:06:25;;;;;;;18.73;16.75;;;;;;;22.22;68.09;100481.59;5090797;28;20392;-32
2022/05/16 07:08:51;;;;;;;19.13;17.15;;;;;;;22.35;70.68;100475.53;5109025;28;20061;-35
2022/05/16 07:11:17;;;;;;;19.17;17.15;;;;;;;22.42;69.82;100478.69;5108837;28;20027;-32
2022/05/16 07:13:42;;;;;;;19.13;17.23;;;;;;;22.48;70.38;100478.66;5108802;28;20032;-31
2022/05/16 07:16:08;;;;;;;20.98;18.80;;;;;;;22.44;71.85;100484.66;5108695;28;20023;-30
2022/05/16 07:18:33;;;;;;;19.48;17.25;;;;;;;22.33;68.00;100466.84;5108931;28;20055;-29
2022/05/16 07:20:59;;;;;;;18.70;16.30;;;;;;;22.44;69.18;100476.50;5108712;28;20066;-31
2022/05/16 07:23:26;;;;;;;18.05;16.35;;;;;;;22.71;67.51;100483.28;5107518;28;20027;-31
2022/05/16 07:28:35;;;;;;;17.23;15.52;;;;;;;23.01;67.01;100484.84;5108676;28;20039;-31
2022/05/16 07:31:01;;;;;;;17.60;15.80;;;;;;;22.99;66.83;100467.16;5108581;28;20032;-37
2022/05/16 07:33:27;;;;;;;17.52;15.93;;;;;;;23.29;65.24;100465.94;5108698;28;20024;-31
2022/05/16 07:35:54;;;;;;;17.92;16.10;;;;;;;23.39;65.57;100473.16;5108487;28;20035;-34
2022/05/16 07:38:20;;;;;;;17.65;15.77;;;;;;;23.31;65.94;100454.78;5108242;28;20027;-33
2022/05/16 07:40:46;;;;;;;17.35;15.63;;;;;;;23.32;64.08;100467.28;5089923;28;20100;-31
2022/05/16 07:43:12;;;;;;;19.23;16.05;;;;;;;23.80;64.84;100469.81;5106752;28;20054;-30
2022/05/16 07:45:37;;;;;;;17.52;15.82;;;;;;;23.96;63.54;100467.66;5108146;28;20415;-34
2022/05/16 07:48:03;;;;;;;16.20;14.52;;;;;;;24.35;63.86;100472.66;5108509;28;20039;-30
2022/05/16 07:50:30;;;;;;;16.00;14.30;;;;;;;24.24;63.05;100479.44;5089807;28;20054;-30
2022/05/16 07:52:58;;;;;;;16.27;14.68;;;;;;;24.08;62.47;100459.03;5089639;28;20019;-31
2022/05/16 07:55:25;;;;;;;16.77;15.18;;;;;;;23.97;63.50;100469.28;5106242;28;20122;-32
2022/05/16 07:57:50;;;;;;;17.70;14.70;;;;;;;24.11;63.23;100447.50;5106358;28;20461;-30
2022/05/16 08:00:18;;;;;;;17.42;15.63;;;;;;;24.41;62.22;100449.66;5107866;28;20020;-31
2022/05/16 08:02:43;;;;;;;15.55;13.90;;;;;;;24.41;61.28;100463.28;5089425;28;20114;-30
2022/05/16 08:05:12;;;;;;;16.55;14.95;;;;;;;24.70;63.86;100464.94;5107709;28;20567;-30
2022/05/16 08:10:29;;;;;;;16.65;14.95;;;;;;;25.02;61.33;100465.91;5106150;28;20061;-32
2022/05/16 08:10:29;;;;;;;14.20;12.68;;;;;;;24.66;59.07;100458.47;5107902;28;20031;-33
2022/05/16 08:12:56;;;;;;;15.23;13.63;;;;;;;24.53;59.20;100449.19;5107856;28;20023;-30
2022/05/16 08:15:22;;;;;;;14.63;13.15;;;;;;;24.86;59.35;100446.34;5106207;28;20065;-29
2022/05/16 08:17:47;;;;;;;14.00;12.65;;;;;;;25.00;58.43;100463.47;5089164;28;20031;-34
2022/05/16 08:20:13;;;;;;;14.30;12.75;;;;;;;24.74;59.59;100455.03;5107326;28;20532;-31
2022/05/16 08:22:38;;;;;;;12.70;11.40;;;;;;;25.16;58.18;100435.88;5107753;28;20031;-34
2022/05/16 08:25:05;;;;;;;13.95;11.95;;;;;;;25.37;57.37;100439.75;5106107;28;20038;-30
2022/05/16 08:27:30;;;;;;;12.80;11.57;;;;;;;25.61;55.84;100444.13;5088485;28;20039;-31
2022/05/16 08:29:56;;;;;;;12.50;11.18;;;;;;;25.74;54.88;100450.63;5107332;28;20023;-30
2022/05/16 08:32:23;;;;;;;11.40;9.40;;;;;;;26.03;53.27;100451.00;5107477;28;20024;-33
2022/05/16 08:34:50;;;;;;;10.60;9.57;;;;;;;26.28;53.25;100443.25;5107296;28;20084;-30
2022/05/16 08:40:06;;;;;;;9.52;8.52;;;;;;;26.49;52.17;100429.00;5106978;28;20070;-32
2022/05/16 08:42:50;;;;;;;10.57;9.48;;;;;;;26.62;51.43;100441.78;5107617;28;20131;-32
2022/05/16 08:45:29;;;;;;;11.38;10.27;;;;;;;26.95;52.63;100439.44;5107134;28;20112;-31
2022/05/16 08:47:57;;;;;;;12.15;10.40;;;;;;;27.09;50.31;100435.75;5089497;28;20027;-30
2022/05/16 08:50:28;;;;;;;10.82;9.80;;;;;;;27.28;49.86;100435.44;5106014;28;20043;-30
2022/05/16 08:53:02;;;;;;;11.25;10.07;;;;;;;27.34;48.14;100425.94;5106026;28;20163;-29
2022/05/16 08:55:38;;;;;;;13.10;10.10;;;;;;;27.19;48.48;100432.69;5088948;28;20023;-30
2022/05/16 08:58:19;;;;;;;11.52;9.40;;;;;;;26.86;48.94;100438.63;5107299;28;20698;-35
2022/05/16 09:00:56;;;;;;;11.10;9.90;;;;;;;27.28;50.75;100441.75;5107227;28;20818;-31
2022/05/16 09:03:34;;;;;;;11.05;9.95;;;;;;;27.24;48.66;100416.13;5107113;28;20040;-30
2022/05/16 09:06:05;;;;;;;11.00;9.90;;;;;;;27.70;47.52;100433.00;5088629;28;20540;-33
2022/05/16 09:08:51;;;;;;;10.50;9.35;;;;;;;27.62;46.86;100438.19;5107570;28;20028;-29
2022/05/16 09:11:23;;;;;;;9.90;8.55;;;;;;;27.38;45.03;100437.84;5105796;28;20514;-32
2022/05/16 09:13:57;;;;;;;9.90;8.90;;;;;;;27.42;47.71;100417.72;5106824;28;20035;-32
2022/05/16 09:16:35;;;;;;;9.88;8.48;;;;;;;27.61;47.48;100438.50;5088453;28;20039;-30
2022/05/16 09:19:19;;;;;;;10.07;8.10;;;;;;;27.43;46.03;100435.75;5105527;28;20030;-36
2022/05/16 09:22:05;;;;;;;8.20;7.20;;;;;;;27.90;42.43;100432.34;5105465;28;20035;-31
2022/05/16 09:24:36;;;;;;;8.18;6.90;;;;;;;27.79;42.06;100414.63;5105447;28;20039;-31
2022/05/16 09:27:13;;;;;;;7.88;5.32;;;;;;;27.64;38.16;100435.09;5107210;28;20039;-34
2022/05/16 09:29:42;;;;;;;7.75;6.00;;;;;;;28.05;40.07;100422.75;5088641;28;20035;-30
2022/05/16 09:32:27;;;;;;;7.90;6.57;;;;;;;28.13;39.67;100418.38;5088540;28;20077;-32
2022/05/16 09:34:53;;;;;;;7.80;5.80;;;;;;;28.31;38.52;100422.66;5105575;28;20035;-33
2022/05/16 09:37:20;;;;;;;7.88;6.95;;;;;;;28.37;41.06;100398.59;5106973;28;20032;-31
2022/05/16 09:39:45;;;;;;;8.48;6.40;;;;;;;28.41;36.81;100397.59;5104426;28;20056;-33
2022/05/16 09:42:28;;;;;;;9.18;6.50;;;;;;;28.77;36.99;100412.75;5088978;28;20373;-30
2022/05/16 09:44:53;;;;;;;8.60;6.32;;;;;;;28.77;36.86;100412.75;5106070;28;20093;-31
2022/05/16 09:47:40;;;;;;;7.90;6.65;;;;;;;28.67;35.62;100404.91;5090221;28;20032;-30
2022/05/16 09:50:20;;;;;;;8.02;6.45;;;;;;;28.61;37.41;100389.78;5088715;28;20086;-30
2022/05/16 09:53:10;;;;;;;8.68;6.25;;;;;;;28.89;36.17;100406.56;5105534;28;20070;-31
2022/05/16 09:56:09;;;;;;;9.48;6.45;;;;;;;29.25;34.97;100386.72;5105401;28;20031;-33
2022/05/16 09:59:00;;;;;;;7.30;5.20;;;;;;;28.94;33.25;100394.56;5082411;28;20032;-31
2022/05/16 10:01:43;;;;;;;6.93;5.75;;;;;;;28.87;34.57;100391.53;5088422;28;20295;-33
2022/05/16 10:04:18;;;;;;;6.15;5.55;;;;;;;29.11;32.04;100390.88;5105232;28;20024;-30
2022/05/16 10:07:04;;;;;;;7.60;5.10;;;;;;;29.00;32.75;100388.53;5088599;28;20503;-30
2022/05/16 10:09:38;;;;;;;8.20;5.35;;;;;;;29.90;32.21;100380.75;5089250;28;20100;-41
2022/05/16 10:12:08;;;;;;;7.15;5.05;;;;;;;30.50;31.50;100374.81;5089908;28;20039;-30
2022/05/16 10:14:37;;;;;;;7.07;5.70;;;;;;;30.92;29.87;100371.75;5089787;28;20545;-33
2022/05/16 10:17:05;;;;;;;7.30;5.68;;;;;;;30.16;31.53;100374.91;5089808;28;20377;-30
2022/05/16 10:19:32;;;;;;;9.48;6.70;;;;;;;30.05;31.56;100354.50;5105071;28;20043;-30
2022/05/16 10:22:14;;;;;;;6.95;6.03;;;;;;;30.68;31.21;100367.88;5105276;28;20032;-30
2022/05/16 10:24:44;;;;;;;6.93;5.63;;;;;;;30.72;31.95;100362.50;5088094;28;20555;-31
2022/05/16 10:27:12;;;;;;;6.65;5.60;;;;;;;30.63;32.26;100357.13;5089549;28;20034;-30
2022/05/16 10:29:41;;;;;;;7.78;5.45;;;;;;;30.84;29.16;100338.47;5087964;28;20051;-31
2022/05/16 10:35:08;;;;;;;7.93;5.95;;;;;;;30.47;31.30;100320.47;5089668;28;20096;-30
2022/05/16 10:37:40;;;;;;;7.50;5.30;;;;;;;31.04;33.22;100335.91;5087501;28;20126;-33
2022/05/16 10:40:37;;;;;;;9.13;5.80;;;;;;;30.64;32.76;100336.69;5104478;28;20063;-31
2022/05/16 10:43:15;;;;;;;8.57;5.68;;;;;;;30.61;33.34;100318.16;5083985;28;20483;-32
2022/05/16 10:45:47;;;;;;;8.85;5.85;;;;;;;30.78;33.01;100322.56;5103983;28;20048;-30
2022/05/16 10:48:31;;;;;;;7.85;6.22;;;;;;;30.71;33.05;100316.84;5104346;28;20024;-30
2022/05/16 10:51:08;;;;;;;7.38;5.85;;;;;;;31.45;30.69;100311.84;5104176;28;20568;-33
2022/05/16 10:53:57;;;;;;;5.95;5.10;;;;;;;31.99;29.47;100310.41;5087355;28;20024;-30
2022/05/16 10:56:50;;;;;;;7.10;5.78;;;;;;;31.48;29.88;100307.56;5079437;28;20047;-34
2022/05/16 10:59:50;;;;;;;8.25;5.60;;;;;;;31.16;32.76;100300.06;5104660;28;20024;-30
2022/05/16 11:02:18;;;;;;;7.75;5.10;;;;;;;30.84;32.80;100291.66;5088853;28;20368;-30
2022/05/16 11:05:05;;;;;;;6.20;5.60;;;;;;;31.02;32.83;100288.66;5104130;28;20032;-33
2022/05/16 11:07:53;;;;;;;;;;;;;;;31.05;31.98;100293.44;5089211;28;20081;-31
2022/05/16 11:10:27;;;;;;;8.20;5.75;;;;;;;31.41;29.32;100288.88;5104182;28;20341;-33
2022/05/16 11:13:02;;;;;;;7.05;4.95;;;;;;;31.34;30.51;100281.22;5087342;28;20028;-30
2022/05/16 11:15:45;;;;;;;7.57;5.32;;;;;;;30.97;31.05;100266.84;5104162;28;20036;-30
2022/05/16 11:19:05;;;;;;;6.18;5.15;;;;;;;31.23;29.97;100272.66;5103902;28;20424;-31
2022/05/16 11:21:36;;;;;;;7.05;4.53;;;;;;;31.61;28.69;100271.31;5047875;28;20074;-39
2022/05/16 11:24:47;;;;;;;6.35;4.72;;;;;;;32.00;27.79;100279.75;5085182;28;20050;-33
2022/05/16 11:27:20;;;;;;;6.75;5.22;;;;;;;31.91;28.89;100256.22;5086808;28;20128;-33
2022/05/16 11:29:50;;;;;;;6.35;4.63;;;;;;;32.07;30.14;100265.31;5103502;28;20503;-30
2022/05/16 11:32:40;;;;;;;6.53;4.60;;;;;;;32.37;27.63;100256.50;5088510;28;20550;-32
2022/05/16 11:35:23;;;;;;;6.20;4.60;;;;;;;32.12;27.87;100255.94;5103754;28;20074;-33
2022/05/16 11:38:28;;;;;;;10.02;4.95;;;;;;;31.60;28.25;100241.34;5103596;28;20554;-38
2022/05/16 11:41:15;;;;;;;8.48;5.57;;;;;;;31.89;29.41;100229.00;5108257;28;20066;-33
2022/05/16 11:43:46;;;;;;;6.95;4.95;;;;;;;31.68;29.88;100231.28;5106559;28;20044;-33
2022/05/16 11:46:20;;;;;;;7.00;5.22;;;;;;;32.18;29.35;100230.47;5089797;28;20070;-30
2022/05/16 11:48:55;;;;;;;7.95;5.15;;;;;;;32.00;28.55;100227.34;5106955;28;20036;-32
2022/05/16 11:51:23;;;;;;;6.63;4.57;;;;;;;32.71;26.86;100216.16;5106826;28;20032;-30